sensor_id;sensor_type;location;lat;lon;timestamp;pressure;altitude;pressure_sealevel;temperature;humidity
66479;BME280;53294;47.912;13.526;2022-09-17T00:01:09;95563.47;;;13.02;65.82
66479;BME280;53294;47.912;13.526;2022-09-17T00:03:40;95559.47;;;12.79;66.76
66479;BME280;53294;47.912;13.526;2022-09-17T00:06:09;95572.19;;;12.69;66.96
66479;BME280;53294;47.912;13.526;2022-09-17T00:08:38;95585.69;;;12.52;67.89
66479;BME280;53294;47.912;13.526;2022-09-17T00:11:23;95596.88;;;12.15;69.99
66479;BME280;53294;47.912;13.526;2022-09-17T00:13:52;95602.44;;;11.93;70.91
66479;BME280;53294;47.912;13.526;2022-09-17T00:16:39;95592.13;;;11.77;70.95
66479;BME280;53294;47.912;13.526;2022-09-17T00:19:11;95593.56;;;11.75;69.89
66479;BME280;53294;47.912;13.526;2022-09-17T00:21:39;95579.31;;;11.65;69.81
66479;BME280;53294;47.912;13.526;2022-09-17T00:24:06;95582.63;;;11.62;69.86
66479;BME280;53294;47.912;13.526;2022-09-17T00:26:34;95584.69;;;11.65;69.68
66479;BME280;53294;47.912;13.526;2022-09-17T00:29:00;95587.22;;;11.71;69.29
66479;BME280;53294;47.912;13.526;2022-09-17T00:31:28;95590.25;;;11.78;69.00
66479;BME280;53294;47.912;13.526;2022-09-17T00:33:57;95575.69;;;11.96;68.46
66479;BME280;53294;47.912;13.526;2022-09-17T00:36:24;95579.47;;;12.04;68.21
66479;BME280;53294;47.912;13.526;2022-09-17T00:38:58;95578.34;;;12.14;67.68
66479;BME280;53294;47.912;13.526;2022-09-17T00:41:29;95571.81;;;12.32;67.21
66479;BME280;53294;47.912;13.526;2022-09-17T00:44:01;95564.50;;;12.42;66.73
66479;BME280;53294;47.912;13.526;2022-09-17T00:46:44;95563.63;;;12.67;65.72
66479;BME280;53294;47.912;13.526;2022-09-17T00:49:16;95562.84;;;12.67;65.74
66479;BME280;53294;47.912;13.526;2022-09-17T00:52:13;95577.50;;;12.87;65.60
66479;BME280;53294;47.912;13.526;2022-09-17T00:54:44;95575.97;;;12.68;65.96
66479;BME280;53294;47.912;13.526;2022-09-17T00:57:11;95571.81;;;12.80;65.67
66479;BME280;53294;47.912;13.526;2022-09-17T00:59:38;95575.44;;;12.84;65.54
66479;BME280;53294;47.912;13.526;2022-09-17T01:02:05;95579.91;;;12.80;66.14
66479;BME280;53294;47.912;13.526;2022-09-17T01:04:32;95576.13;;;12.72;66.56
66479;BME280;53294;47.912;13.526;2022-09-17T01:10:02;95582.84;;;12.57;67.00
66479;BME280;53294;47.912;13.526;2022-09-17T01:28:23;95589.97;;;12.53;67.26
66479;BME280;53294;47.912;13.526;2022-09-17T01:31:03;95579.84;;;12.50;67.40
66479;BME280;53294;47.912;13.526;2022-09-17T01:33:46;95576.06;;;12.51;67.06
66479;BME280;53294;47.912;13.526;2022-09-17T01:37:08;95577.63;;;12.52;67.10
66479;BME280;53294;47.912;13.526;2022-09-17T01:40:15;95577.81;;;12.38;67.37
66479;BME280;53294;47.912;13.526;2022-09-17T01:42:48;95570.69;;;12.33;67.31
66479;BME280;53294;47.912;13.526;2022-09-17T01:45:36;95576.09;;;12.33;67.49
66479;BME280;53294;47.912;13.526;2022-09-17T01:48:09;95571.69;;;12.20;67.46
66479;BME280;53294;47.912;13.526;2022-09-17T01:51:08;95570.38;;;12.35;67.26
66479;BME280;53294;47.912;13.526;2022-09-17T01:53:44;95571.44;;;12.60;66.10
66479;BME280;53294;47.912;13.526;2022-09-17T01:56:17;95582.97;;;11.96;68.30
66479;BME280;53294;47.912;13.526;2022-09-17T01:58:55;95589.13;;;12.14;67.68
66479;BME280;53294;47.912;13.526;2022-09-17T02:01:23;95583.44;;;12.07;67.88
66479;BME280;53294;47.912;13.526;2022-09-17T02:04:05;95576.38;;;12.41;66.25
66479;BME280;53294;47.912;13.526;2022-09-17T02:06:37;95575.25;;;12.50;66.20
66479;BME280;53294;47.912;13.526;2022-09-17T02:09:19;95578.38;;;12.61;66.05
66479;BME280;53294;47.912;13.526;2022-09-17T02:11:52;95590.50;;;12.37;66.87
66479;BME280;53294;47.912;13.526;2022-09-17T02:14:26;95590.88;;;11.92;68.49
66479;BME280;53294;47.912;13.526;2022-09-17T02:17:02;95585.31;;;11.80;68.65
66479;BME280;53294;47.912;13.526;2022-09-17T02:19:34;95576.16;;;11.98;68.07
66479;BME280;53294;47.912;13.526;2022-09-17T02:22:26;95577.44;;;11.92;68.31
66479;BME280;53294;47.912;13.526;2022-09-17T02:25:04;95577.41;;;11.83;68.67
66479;BME280;53294;47.912;13.526;2022-09-17T02:30:12;95564.59;;;11.63;69.24
66479;BME280;53294;47.912;13.526;2022-09-17T02:32:39;95565.38;;;11.63;69.26
66479;BME280;53294;47.912;13.526;2022-09-17T02:35:06;95563.97;;;11.66;69.45
66479;BME280;53294;47.912;13.526;2022-09-17T02:37:32;95558.28;;;11.50;69.69
66479;BME280;53294;47.912;13.526;2022-09-17T02:39:59;95555.75;;;11.62;69.51
66479;BME280;53294;47.912;13.526;2022-09-17T02:51:18;95531.81;;;11.70;69.01
66479;BME280;53294;47.912;13.526;2022-09-17T02:54:00;95518.53;;;11.82;68.75
66479;BME280;53294;47.912;13.526;2022-09-17T02:56:51;95518.53;;;11.64;68.93
66479;BME280;53294;47.912;13.526;2022-09-17T02:59:35;95523.75;;;11.43;69.61
66479;BME280;53294;47.912;13.526;2022-09-17T03:02:25;95516.63;;;11.21;69.83
66479;BME280;53294;47.912;13.526;2022-09-17T03:04:54;95520.91;;;11.13;70.14
66479;BME280;53294;47.912;13.526;2022-09-17T03:07:22;95530.25;;;11.16;70.31
66479;BME280;53294;47.912;13.526;2022-09-17T03:09:49;95520.28;;;11.17;70.08
66479;BME280;53294;47.912;13.526;2022-09-17T03:12:16;95514.28;;;11.28;69.57
66479;BME280;53294;47.912;13.526;2022-09-17T03:14:43;95514.59;;;11.27;69.63
66479;BME280;53294;47.912;13.526;2022-09-17T03:17:10;95513.50;;;11.19;69.75
66479;BME280;53294;47.912;13.526;2022-09-17T03:19:37;95528.81;;;11.27;69.81
66479;BME280;53294;47.912;13.526;2022-09-17T03:22:04;95534.66;;;11.12;70.17
66479;BME280;53294;47.912;13.526;2022-09-17T03:24:30;95546.50;;;11.02;70.42
66479;BME280;53294;47.912;13.526;2022-09-17T03:26:57;95552.38;;;11.13;69.94
66479;BME280;53294;47.912;13.526;2022-09-17T03:29:24;95551.72;;;11.07;70.14
66479;BME280;53294;47.912;13.526;2022-09-17T03:31:51;95554.06;;;10.91;70.59
66479;BME280;53294;47.912;13.526;2022-09-17T03:34:17;95547.78;;;11.05;70.28
66479;BME280;53294;47.912;13.526;2022-09-17T03:36:44;95540.34;;;11.10;70.06
66479;BME280;53294;47.912;13.526;2022-09-17T03:39:11;95544.16;;;11.18;69.69
66479;BME280;53294;47.912;13.526;2022-09-17T03:41:38;95548.28;;;11.24;69.61
66479;BME280;53294;47.912;13.526;2022-09-17T03:44:05;95554.16;;;11.26;69.38
66479;BME280;53294;47.912;13.526;2022-09-17T03:46:32;95555.66;;;10.92;71.08
66479;BME280;53294;47.912;13.526;2022-09-17T03:48:59;95550.13;;;10.98;70.44
66479;BME280;53294;47.912;13.526;2022-09-17T03:51:25;95541.84;;;10.68;71.24
66479;BME280;53294;47.912;13.526;2022-09-17T03:53:53;95524.63;;;10.77;71.01
66479;BME280;53294;47.912;13.526;2022-09-17T03:56:19;95518.34;;;10.91;70.56
66479;BME280;53294;47.912;13.526;2022-09-17T03:58:46;95517.03;;;10.80;70.76
66479;BME280;53294;47.912;13.526;2022-09-17T04:01:13;95531.13;;;10.85;70.89
66479;BME280;53294;47.912;13.526;2022-09-17T04:03:40;95538.22;;;10.81;70.82
66479;BME280;53294;47.912;13.526;2022-09-17T04:06:07;95539.00;;;10.73;71.07
66479;BME280;53294;47.912;13.526;2022-09-17T04:08:34;95541.09;;;10.85;70.63
66479;BME280;53294;47.912;13.526;2022-09-17T04:11:02;95543.16;;;10.96;70.30
66479;BME280;53294;47.912;13.526;2022-09-17T04:13:28;95533.53;;;11.04;69.98
66479;BME280;53294;47.912;13.526;2022-09-17T04:15:55;95528.63;;;10.98;70.12
66479;BME280;53294;47.912;13.526;2022-09-17T04:18:21;95529.41;;;10.98;70.33
66479;BME280;53294;47.912;13.526;2022-09-17T04:20:48;95541.00;;;11.16;69.39
66479;BME280;53294;47.912;13.526;2022-09-17T04:23:15;95541.78;;;11.08;69.36
66479;BME280;53294;47.912;13.526;2022-09-17T04:25:41;95538.91;;;11.04;69.61
66479;BME280;53294;47.912;13.526;2022-09-17T04:28:08;95555.34;;;10.94;69.95
66479;BME280;53294;47.912;13.526;2022-09-17T04:30:35;95561.16;;;10.87;69.26
66479;BME280;53294;47.912;13.526;2022-09-17T04:33:02;95573.75;;;10.69;69.79
66479;BME280;53294;47.912;13.526;2022-09-17T04:35:29;95574.31;;;10.57;69.76
66479;BME280;53294;47.912;13.526;2022-09-17T04:37:56;95588.06;;;10.56;69.76
66479;BME280;53294;47.912;13.526;2022-09-17T04:40:24;95589.91;;;10.47;69.37
66479;BME280;53294;47.912;13.526;2022-09-17T04:42:52;95602.91;;;10.31;69.26
66479;BME280;53294;47.912;13.526;2022-09-17T04:45:19;95598.78;;;10.24;69.40
66479;BME280;53294;47.912;13.526;2022-09-17T04:47:46;95611.72;;;10.22;69.41
66479;BME280;53294;47.912;13.526;2022-09-17T04:50:13;95603.84;;;10.03;69.77
66479;BME280;53294;47.912;13.526;2022-09-17T04:52:43;95597.44;;;10.13;69.53
66479;BME280;53294;47.912;13.526;2022-09-17T04:55:10;95609.75;;;10.14;70.02
66479;BME280;53294;47.912;13.526;2022-09-17T04:57:37;95612.63;;;10.18;69.78
66479;BME280;53294;47.912;13.526;2022-09-17T05:00:05;95605.34;;;9.96;70.60
66479;BME280;53294;47.912;13.526;2022-09-17T05:02:35;95607.25;;;9.95;70.49
66479;BME280;53294;47.912;13.526;2022-09-17T05:05:02;95605.09;;;9.83;71.15
66479;BME280;53294;47.912;13.526;2022-09-17T05:07:29;95611.22;;;9.98;70.84
66479;BME280;53294;47.912;13.526;2022-09-17T05:09:56;95611.22;;;9.98;71.02
66479;BME280;53294;47.912;13.526;2022-09-17T05:12:22;95619.63;;;10.05;70.82
66479;BME280;53294;47.912;13.526;2022-09-17T05:14:49;95625.63;;;10.24;69.97
66479;BME280;53294;47.912;13.526;2022-09-17T05:17:15;95623.66;;;10.16;70.50
66479;BME280;53294;47.912;13.526;2022-09-17T05:19:42;95637.63;;;10.04;70.68
66479;BME280;53294;47.912;13.526;2022-09-17T05:22:09;95635.19;;;10.17;70.42
66479;BME280;53294;47.912;13.526;2022-09-17T05:24:35;95648.44;;;10.13;70.43
66479;BME280;53294;47.912;13.526;2022-09-17T05:27:05;95641.59;;;10.07;70.61
66479;BME280;53294;47.912;13.526;2022-09-17T05:29:32;95635.38;;;10.20;70.26
66479;BME280;53294;47.912;13.526;2022-09-17T05:31:59;95641.09;;;10.28;69.86
66479;BME280;53294;47.912;13.526;2022-09-17T05:34:25;95637.03;;;10.30;69.16
66479;BME280;53294;47.912;13.526;2022-09-17T05:36:52;95653.75;;;10.27;69.16
66479;BME280;53294;47.912;13.526;2022-09-17T05:39:19;95661.78;;;10.27;69.13
66479;BME280;53294;47.912;13.526;2022-09-17T05:41:48;95674.69;;;10.39;68.61
66479;BME280;53294;47.912;13.526;2022-09-17T05:44:14;95671.22;;;10.38;68.39
66479;BME280;53294;47.912;13.526;2022-09-17T05:46:44;95676.97;;;10.54;68.12
66479;BME280;53294;47.912;13.526;2022-09-17T05:49:12;95668.53;;;10.38;68.07
66479;BME280;53294;47.912;13.526;2022-09-17T05:51:41;95667.34;;;10.31;68.75
66479;BME280;53294;47.912;13.526;2022-09-17T05:54:07;95675.28;;;10.36;68.55
66479;BME280;53294;47.912;13.526;2022-09-17T05:56:34;95679.44;;;10.42;68.05
66479;BME280;53294;47.912;13.526;2022-09-17T05:59:01;95679.44;;;10.42;68.20
66479;BME280;53294;47.912;13.526;2022-09-17T06:01:27;95679.19;;;10.52;68.29
66479;BME280;53294;47.912;13.526;2022-09-17T06:03:55;95674.75;;;10.48;67.98
66479;BME280;53294;47.912;13.526;2022-09-17T06:06:22;95670.66;;;10.50;67.83
66479;BME280;53294;47.912;13.526;2022-09-17T06:08:49;95673.50;;;10.54;68.04
66479;BME280;53294;47.912;13.526;2022-09-17T06:11:15;95669.31;;;10.70;67.56
66479;BME280;53294;47.912;13.526;2022-09-17T06:13:42;95680.88;;;10.71;67.32
66479;BME280;53294;47.912;13.526;2022-09-17T06:16:09;95684.41;;;10.80;67.16
66479;BME280;53294;47.912;13.526;2022-09-17T06:18:36;95679.38;;;10.87;66.88
66479;BME280;53294;47.912;13.526;2022-09-17T06:21:03;95679.38;;;10.87;67.08
66479;BME280;53294;47.912;13.526;2022-09-17T06:23:32;95682.41;;;10.94;67.21
66479;BME280;53294;47.912;13.526;2022-09-17T06:26:04;95683.19;;;10.86;67.15
66479;BME280;53294;47.912;13.526;2022-09-17T06:28:31;95674.69;;;10.70;67.57
66479;BME280;53294;47.912;13.526;2022-09-17T06:31:05;95659.81;;;10.64;67.74
66479;BME280;53294;47.912;13.526;2022-09-17T06:33:32;95648.97;;;10.47;68.43
66479;BME280;53294;47.912;13.526;2022-09-17T06:36:02;95642.91;;;10.64;68.01
66479;BME280;53294;47.912;13.526;2022-09-17T06:38:33;95640.19;;;10.55;68.40
66479;BME280;53294;47.912;13.526;2022-09-17T06:41:01;95629.09;;;10.48;68.79
66479;BME280;53294;47.912;13.526;2022-09-17T06:43:28;95624.88;;;10.55;68.87
66479;BME280;53294;47.912;13.526;2022-09-17T06:45:57;95619.72;;;10.68;68.35
66479;BME280;53294;47.912;13.526;2022-09-17T06:48:24;95626.81;;;10.64;68.98
66479;BME280;53294;47.912;13.526;2022-09-17T06:50:53;95623.97;;;10.69;68.78
66479;BME280;53294;47.912;13.526;2022-09-17T06:53:23;95602.97;;;10.71;68.42
66479;BME280;53294;47.912;13.526;2022-09-17T06:55:49;95600.38;;;10.88;67.99
66479;BME280;53294;47.912;13.526;2022-09-17T06:58:16;95629.44;;;10.86;68.10
66479;BME280;53294;47.912;13.526;2022-09-17T07:00:43;95650.94;;;10.86;67.99
66479;BME280;53294;47.912;13.526;2022-09-17T07:03:12;95660.19;;;10.71;67.94
66479;BME280;53294;47.912;13.526;2022-09-17T07:05:38;95666.84;;;10.74;67.89
66479;BME280;53294;47.912;13.526;2022-09-17T07:08:08;95675.16;;;10.64;67.23
66479;BME280;53294;47.912;13.526;2022-09-17T07:10:36;95675.38;;;10.31;67.51
66479;BME280;53294;47.912;13.526;2022-09-17T07:13:02;95675.91;;;10.33;67.56
66479;BME280;53294;47.912;13.526;2022-09-17T07:15:29;95667.56;;;10.20;67.47
66479;BME280;53294;47.912;13.526;2022-09-17T07:17:56;95672.81;;;10.03;67.10
66479;BME280;53294;47.912;13.526;2022-09-17T07:20:24;95677.44;;;9.88;67.02
66479;BME280;53294;47.912;13.526;2022-09-17T07:22:54;95694.13;;;9.85;68.17
66479;BME280;53294;47.912;13.526;2022-09-17T07:25:23;95711.44;;;9.79;67.76
66479;BME280;53294;47.912;13.526;2022-09-17T07:27:50;95724.72;;;9.84;67.22
66479;BME280;53294;47.912;13.526;2022-09-17T07:30:17;95727.91;;;9.86;66.61
66479;BME280;53294;47.912;13.526;2022-09-17T07:32:44;95716.88;;;9.88;66.96
66479;BME280;53294;47.912;13.526;2022-09-17T07:35:11;95720.72;;;9.96;66.34
66479;BME280;53294;47.912;13.526;2022-09-17T07:37:38;95718.25;;;9.99;66.00
66479;BME280;53294;47.912;13.526;2022-09-17T07:40:05;95722.59;;;9.73;67.44
66479;BME280;53294;47.912;13.526;2022-09-17T07:42:35;95736.47;;;9.75;66.63
66479;BME280;53294;47.912;13.526;2022-09-17T07:45:02;95762.28;;;9.84;66.98
66479;BME280;53294;47.912;13.526;2022-09-17T07:47:28;95760.59;;;9.88;67.14
66479;BME280;53294;47.912;13.526;2022-09-17T07:49:55;95748.88;;;9.84;66.71
66479;BME280;53294;47.912;13.526;2022-09-17T07:52:22;95764.09;;;9.75;66.58
66479;BME280;53294;47.912;13.526;2022-09-17T07:54:48;95787.50;;;9.83;66.61
66479;BME280;53294;47.912;13.526;2022-09-17T07:57:15;95774.50;;;9.91;66.61
66479;BME280;53294;47.912;13.526;2022-09-17T07:59:41;95777.38;;;9.94;66.33
66479;BME280;53294;47.912;13.526;2022-09-17T08:02:11;95762.22;;;10.12;66.24
66479;BME280;53294;47.912;13.526;2022-09-17T08:04:42;95744.31;;;10.21;65.86
66479;BME280;53294;47.912;13.526;2022-09-17T08:07:12;95737.28;;;10.48;65.12
66479;BME280;53294;47.912;13.526;2022-09-17T08:09:39;95728.94;;;10.50;64.71
66479;BME280;53294;47.912;13.526;2022-09-17T08:12:06;95739.66;;;10.72;65.11
66479;BME280;53294;47.912;13.526;2022-09-17T08:14:32;95751.81;;;10.70;64.17
66479;BME280;53294;47.912;13.526;2022-09-17T08:16:59;95771.22;;;10.67;65.08
66479;BME280;53294;47.912;13.526;2022-09-17T08:19:26;95772.94;;;10.85;64.43
66479;BME280;53294;47.912;13.526;2022-09-17T08:21:55;95777.06;;;10.91;63.62
66479;BME280;53294;47.912;13.526;2022-09-17T08:24:22;95783.50;;;10.82;63.69
66479;BME280;53294;47.912;13.526;2022-09-17T08:26:48;95773.44;;;10.65;63.37
66479;BME280;53294;47.912;13.526;2022-09-17T08:29:15;95768.84;;;10.65;64.09
66479;BME280;53294;47.912;13.526;2022-09-17T08:31:42;95766.94;;;10.66;63.77
66479;BME280;53294;47.912;13.526;2022-09-17T08:34:09;95755.47;;;10.74;64.28
66479;BME280;53294;47.912;13.526;2022-09-17T08:36:36;95740.06;;;10.88;63.64
66479;BME280;53294;47.912;13.526;2022-09-17T08:39:03;95711.13;;;10.85;64.26
66479;BME280;53294;47.912;13.526;2022-09-17T08:44:29;95712.59;;;10.91;63.78
66479;BME280;53294;47.912;13.526;2022-09-17T08:47:07;95720.88;;;10.72;63.91
66479;BME280;53294;47.912;13.526;2022-09-17T08:49:50;95772.81;;;10.68;64.27
66479;BME280;53294;47.912;13.526;2022-09-17T08:55:36;95776.13;;;10.14;65.49
66479;BME280;53294;47.912;13.526;2022-09-17T09:00:54;95768.66;;;9.88;65.77
66479;BME280;53294;47.912;13.526;2022-09-17T09:03:48;95767.19;;;10.19;65.30
66479;BME280;53294;47.912;13.526;2022-09-17T09:06:27;95763.19;;;10.30;63.92
66479;BME280;53294;47.912;13.526;2022-09-17T09:09:02;95751.94;;;10.28;64.09
66479;BME280;53294;47.912;13.526;2022-09-17T09:11:31;95745.91;;;10.36;63.82
66479;BME280;53294;47.912;13.526;2022-09-17T09:16:47;95747.53;;;10.46;63.19
66479;BME280;53294;47.912;13.526;2022-09-17T09:19:26;95736.25;;;10.58;64.13
66479;BME280;53294;47.912;13.526;2022-09-17T09:22:00;95736.78;;;10.69;65.01
66479;BME280;53294;47.912;13.526;2022-09-17T09:24:40;95732.75;;;10.57;64.33
66479;BME280;53294;47.912;13.526;2022-09-17T09:27:25;95729.59;;;10.55;63.66
66479;BME280;53294;47.912;13.526;2022-09-17T09:30:03;95733.03;;;10.47;63.44
66479;BME280;53294;47.912;13.526;2022-09-17T09:35:20;95724.00;;;10.43;63.65
66479;BME280;53294;47.912;13.526;2022-09-17T09:37:56;95715.63;;;10.45;63.02
66479;BME280;53294;47.912;13.526;2022-09-17T09:43:13;95724.22;;;10.55;64.30
66479;BME280;53294;47.912;13.526;2022-09-17T09:56:59;95726.09;;;11.49;61.76
66479;BME280;53294;47.912;13.526;2022-09-17T09:59:30;95727.59;;;11.73;61.97
66479;BME280;53294;47.912;13.526;2022-09-17T10:01:57;95717.78;;;11.77;60.99
66479;BME280;53294;47.912;13.526;2022-09-17T10:04:26;95722.19;;;11.73;59.22
66479;BME280;53294;47.912;13.526;2022-09-17T10:07:04;95720.13;;;11.70;60.18
66479;BME280;53294;47.912;13.526;2022-09-17T10:09:34;95714.91;;;11.64;58.79
66479;BME280;53294;47.912;13.526;2022-09-17T10:14:35;95716.00;;;11.63;58.52
66479;BME280;53294;47.912;13.526;2022-09-17T10:19:40;95692.34;;;12.00;59.09
66479;BME280;53294;47.912;13.526;2022-09-17T10:22:26;95679.38;;;12.20;58.34
66479;BME280;53294;47.912;13.526;2022-09-17T10:24:56;95683.00;;;12.33;58.88
66479;BME280;53294;47.912;13.526;2022-09-17T10:27:24;95688.06;;;12.26;56.31
66479;BME280;53294;47.912;13.526;2022-09-17T10:32:28;95714.84;;;12.05;56.04
66479;BME280;53294;47.912;13.526;2022-09-17T10:35:05;95716.91;;;11.99;56.97
66479;BME280;53294;47.912;13.526;2022-09-17T10:37:51;95721.03;;;12.05;57.67
66479;BME280;53294;47.912;13.526;2022-09-17T10:42:48;95715.22;;;11.63;57.74
66479;BME280;53294;47.912;13.526;2022-09-17T10:45:28;95719.13;;;11.48;56.96
66479;BME280;53294;47.912;13.526;2022-09-17T10:47:57;95707.63;;;11.56;58.02
66479;BME280;53294;47.912;13.526;2022-09-17T10:50:29;95709.34;;;11.52;58.85
66479;BME280;53294;47.912;13.526;2022-09-17T10:53:01;95705.22;;;11.46;59.10
66479;BME280;53294;47.912;13.526;2022-09-17T11:13:46;95687.53;;;11.62;61.65
66479;BME280;53294;47.912;13.526;2022-09-17T11:22:21;95682.66;;;11.91;60.58
66479;BME280;53294;47.912;13.526;2022-09-17T11:30:15;95712.47;;;11.37;66.04
66479;BME280;53294;47.912;13.526;2022-09-17T11:35:28;95722.94;;;11.56;66.14
66479;BME280;53294;47.912;13.526;2022-09-17T11:46:04;95716.38;;;10.90;67.98
66479;BME280;53294;47.912;13.526;2022-09-17T11:48:53;95719.13;;;10.76;68.47
66479;BME280;53294;47.912;13.526;2022-09-17T11:51:31;95728.34;;;10.84;69.03
66479;BME280;53294;47.912;13.526;2022-09-17T11:54:06;95725.09;;;10.65;69.22
66479;BME280;53294;47.912;13.526;2022-09-17T11:56:46;95712.13;;;10.67;69.64
66479;BME280;53294;47.912;13.526;2022-09-17T11:59:29;95716.44;;;10.76;69.27
66479;BME280;53294;47.912;13.526;2022-09-17T12:02:24;95712.44;;;10.65;69.63
66479;BME280;53294;47.912;13.526;2022-09-17T12:05:02;95697.81;;;10.12;69.76
66479;BME280;53294;47.912;13.526;2022-09-17T12:07:38;95712.91;;;10.22;69.64
66479;BME280;53294;47.912;13.526;2022-09-17T12:10:34;95711.59;;;9.97;70.08
66479;BME280;53294;47.912;13.526;2022-09-17T12:15:47;95709.03;;;10.14;70.07
66479;BME280;53294;47.912;13.526;2022-09-17T12:21:01;95716.34;;;10.00;69.93
66479;BME280;53294;47.912;13.526;2022-09-17T12:23:36;95698.16;;;9.74;70.95
66479;BME280;53294;47.912;13.526;2022-09-17T12:27:00;95697.13;;;9.84;71.14
66479;BME280;53294;47.912;13.526;2022-09-17T12:43:17;95730.72;;;9.53;71.07
66479;BME280;53294;47.912;13.526;2022-09-17T12:59:18;95734.97;;;9.82;69.57
66479;BME280;53294;47.912;13.526;2022-09-17T13:01:54;95729.34;;;9.70;68.76
66479;BME280;53294;47.912;13.526;2022-09-17T13:10:32;95731.78;;;9.80;69.13
66479;BME280;53294;47.912;13.526;2022-09-17T13:18:36;95711.03;;;9.72;69.70
66479;BME280;53294;47.912;13.526;2022-09-17T13:21:40;95710.03;;;9.82;69.09
66479;BME280;53294;47.912;13.526;2022-09-17T13:24:19;95708.69;;;9.57;69.93
66479;BME280;53294;47.912;13.526;2022-09-17T13:26:48;95714.66;;;9.40;71.65
66479;BME280;53294;47.912;13.526;2022-09-17T13:37:42;95713.88;;;9.25;72.39
66479;BME280;53294;47.912;13.526;2022-09-17T13:40:26;95706.31;;;9.41;72.06
66479;BME280;53294;47.912;13.526;2022-09-17T13:45:29;95714.84;;;9.15;73.58
66479;BME280;53294;47.912;13.526;2022-09-17T13:47:57;95709.50;;;9.29;72.77
66479;BME280;53294;47.912;13.526;2022-09-17T14:13:51;95720.06;;;9.90;71.10
66479;BME280;53294;47.912;13.526;2022-09-17T14:21:28;95731.72;;;10.08;71.94
66479;BME280;53294;47.912;13.526;2022-09-17T14:23:58;95719.91;;;10.09;69.63
66479;BME280;53294;47.912;13.526;2022-09-17T14:26:54;95728.00;;;10.32;69.38
66479;BME280;53294;47.912;13.526;2022-09-17T14:32:17;95731.97;;;10.20;69.61
66479;BME280;53294;47.912;13.526;2022-09-17T14:34:47;95723.63;;;10.22;69.84
66479;BME280;53294;47.912;13.526;2022-09-17T14:37:18;95726.38;;;10.31;69.78
66479;BME280;53294;47.912;13.526;2022-09-17T14:39:47;95724.78;;;10.30;69.57
66479;BME280;53294;47.912;13.526;2022-09-17T14:42:30;95717.81;;;10.06;70.79
66479;BME280;53294;47.912;13.526;2022-09-17T14:45:13;95719.59;;;10.11;70.17
66479;BME280;53294;47.912;13.526;2022-09-17T14:47:41;95727.78;;;10.05;70.87
66479;BME280;53294;47.912;13.526;2022-09-17T14:50:23;95729.81;;;9.72;72.03
66479;BME280;53294;47.912;13.526;2022-09-17T14:52:52;95731.13;;;9.75;71.72
66479;BME280;53294;47.912;13.526;2022-09-17T14:55:22;95726.53;;;9.75;72.54
66479;BME280;53294;47.912;13.526;2022-09-17T14:57:54;95728.31;;;9.80;72.37
66479;BME280;53294;47.912;13.526;2022-09-17T15:00:26;95724.84;;;9.79;72.35
66479;BME280;53294;47.912;13.526;2022-09-17T15:02:56;95719.41;;;10.07;71.71
66479;BME280;53294;47.912;13.526;2022-09-17T15:05:28;95722.63;;;10.32;71.23
66479;BME280;53294;47.912;13.526;2022-09-17T15:08:14;95718.44;;;10.39;71.19
66479;BME280;53294;47.912;13.526;2022-09-17T15:10:57;95722.09;;;10.44;70.48
66479;BME280;53294;47.912;13.526;2022-09-17T15:13:34;95715.28;;;10.69;70.24
66479;BME280;53294;47.912;13.526;2022-09-17T15:16:09;95709.06;;;10.82;69.52
66479;BME280;53294;47.912;13.526;2022-09-17T15:18:57;95702.00;;;10.95;68.74
66479;BME280;53294;47.912;13.526;2022-09-17T15:21:43;95709.16;;;11.00;68.74
66479;BME280;53294;47.912;13.526;2022-09-17T15:27:18;95711.00;;;11.22;67.46
66479;BME280;53294;47.912;13.526;2022-09-17T15:29:50;95711.72;;;11.05;66.52
66479;BME280;53294;47.912;13.526;2022-09-17T15:32:19;95715.13;;;10.96;67.96
66479;BME280;53294;47.912;13.526;2022-09-17T15:40:38;95718.50;;;10.71;68.12
66479;BME280;53294;47.912;13.526;2022-09-17T15:43:29;95714.13;;;10.61;68.95
66479;BME280;53294;47.912;13.526;2022-09-17T15:45:56;95729.34;;;10.66;69.12
66479;BME280;53294;47.912;13.526;2022-09-17T15:48:40;95735.22;;;10.68;69.26
66479;BME280;53294;47.912;13.526;2022-09-17T15:51:31;95733.94;;;10.43;69.82
66479;BME280;53294;47.912;13.526;2022-09-17T15:54:00;95731.59;;;10.27;69.42
66479;BME280;53294;47.912;13.526;2022-09-17T15:56:28;95728.47;;;9.97;71.18
66479;BME280;53294;47.912;13.526;2022-09-17T15:59:04;95731.78;;;9.80;72.02
66479;BME280;53294;47.912;13.526;2022-09-17T16:08:58;95733.66;;;9.94;71.50
66479;BME280;53294;47.912;13.526;2022-09-17T16:11:30;95726.69;;;9.93;71.38
66479;BME280;53294;47.912;13.526;2022-09-17T16:13:59;95727.88;;;10.00;70.54
66479;BME280;53294;47.912;13.526;2022-09-17T16:16:34;95727.56;;;10.02;70.78
66479;BME280;53294;47.912;13.526;2022-09-17T16:19:04;95732.06;;;9.93;70.65
66479;BME280;53294;47.912;13.526;2022-09-17T16:21:32;95731.09;;;9.88;71.46
66479;BME280;53294;47.912;13.526;2022-09-17T16:23:58;95734.47;;;9.80;71.58
66479;BME280;53294;47.912;13.526;2022-09-17T16:26:30;95726.75;;;9.65;72.04
66479;BME280;53294;47.912;13.526;2022-09-17T16:29:05;95725.38;;;9.53;72.33
66479;BME280;53294;47.912;13.526;2022-09-17T16:31:33;95733.91;;;9.56;72.38
66479;BME280;53294;47.912;13.526;2022-09-17T16:33:59;95738.69;;;9.59;71.49
66479;BME280;53294;47.912;13.526;2022-09-17T16:36:26;95740.66;;;9.67;71.58
66479;BME280;53294;47.912;13.526;2022-09-17T16:38:57;95735.00;;;9.55;71.62
66479;BME280;53294;47.912;13.526;2022-09-17T16:41:23;95731.53;;;9.54;71.33
66479;BME280;53294;47.912;13.526;2022-09-17T16:43:50;95732.03;;;9.42;71.40
66479;BME280;53294;47.912;13.526;2022-09-17T16:46:17;95731.53;;;9.40;71.81
66479;BME280;53294;47.912;13.526;2022-09-17T16:48:43;95736.19;;;9.48;71.85